| time (UTC) | temp C | wind direction | speed KPH | gust KPH | rain 1hr cm | rain 24hr cm | rain mn cm | humidity % | barometer mb |
| 20260906171409 | 26 | 283 | 3.2 | 4.8 | 0.00 | 0.00 | 0.00 | 71 | 1015.1 |
| 20260906170409 | 26 | 275 | 0.0 | 4.8 | 0.00 | 0.00 | 0.00 | 71 | 1015.1 |
| 20260906165409 | 25 | 286 | 1.6 | 4.8 | 0.00 | 0.00 | 0.00 | 72 | 1015.2 |
| 20260906164439 | 25 | 17 | 3.2 | 3.2 | 0.00 | 0.00 | 0.00 | 73 | 1015.2 |
| 20260906162409 | 25 | 304 | 3.2 | 4.8 | 0.00 | 0.00 | 0.00 | 72 | 1015.0 |
| 20260906161409 | 25 | 302 | 0.0 | 4.8 | 0.00 | 0.00 | 0.00 | 74 | 1015.1 |
| 20260906160409 | 25 | 317 | 4.8 | 6.4 | 0.00 | 0.00 | 0.00 | 71 | 1015.2 |
| 20260906155409 | 25 | 130 | 3.2 | 4.8 | 0.00 | 0.00 | 0.00 | 76 | 1015.1 |
| 20260906154409 | 25 | 254 | 0.0 | 1.6 | 0.00 | 0.00 | 0.00 | 76 | 1015.1 |
| 20260906153409 | 24 | 304 | 4.8 | 9.7 | 0.00 | 0.00 | 0.00 | 74 | 1015.3 |
| 20260906152439 | 24 | 341 | 4.8 | 4.8 | 0.00 | 0.00 | 0.00 | 76 | 1015.3 |
| 20260906150409 | 24 | 200 | 3.2 | 6.4 | 0.00 | 0.00 | 0.00 | 77 | 1015.1 |
| 20260906144439 | 23 | 25 | 0.0 | 0.0 | 0.00 | 0.00 | 0.00 | 77 | 1015.0 |
| 20260906143409 | 24 | 285 | 0.0 | 1.6 | 0.00 | 0.00 | 0.00 | 77 | 1014.9 |
| 20260906142409 | 23 | 282 | 1.6 | 4.8 | 0.00 | 0.00 | 0.00 | 78 | 1014.8 |
| 20260906141409 | 23 | 32 | 0.0 | 0.0 | 0.00 | 0.00 | 0.00 | 77 | 1014.8 |
| 20260906140409 | 23 | 313 | 4.8 | 4.8 | 0.00 | 0.00 | 0.00 | 79 | 1014.6 |
| 20260906134409 | 23 | 306 | 1.6 | 4.8 | 0.00 | 0.00 | 0.00 | 79 | 1014.6 |
| 20260906133409 | 23 | 339 | 0.0 | 0.0 | 0.00 | 0.00 | 0.00 | 80 | 1014.5 |
| 20260906132409 | 23 | 333 | 0.0 | 0.0 | 0.00 | 0.00 | 0.00 | 83 | 1014.4 |
| 20260906131409 | 22 | 342 | 0.0 | 0.0 | 0.00 | 0.00 | 0.00 | 84 | 1014.5 |
| 20260906130439 | 22 | 293 | 0.0 | 4.8 | 0.00 | 0.00 | 0.00 | 84 | 1014.4 |
| 20260906125409 | 22 | 331 | 0.0 | 0.0 | 0.00 | 0.00 | 0.00 | 86 | 1014.4 |
| 20260906124409 | 21 | 268 | 0.0 | 4.8 | 0.00 | 0.00 | 0.00 | 88 | 1014.4 |
| 20260906123409 | 21 | 267 | 0.0 | 0.0 | 0.00 | 0.00 | 0.00 | 91 | 1014.4 |
| 20260906122409 | 21 | 180 | 0.0 | 0.0 | 0.00 | 0.00 | 0.00 | 91 | 1014.3 |
| 20260906121409 | 20 | 162 | 0.0 | 0.0 | 0.00 | 0.00 | 0.00 | 92 | 1014.2 |
| 20260906120409 | 20 | 162 | 0.0 | 0.0 | 0.00 | 0.00 | 0.00 | 93 | 1014.2 |
| 20260906115409 | 19 | 162 | 0.0 | 1.6 | 0.00 | 0.00 | 0.00 | 93 | 1014.1 |
| 20260906114439 | 19 | 165 | 0.0 | 0.0 | 0.00 | 0.00 | 0.00 | 93 | 1014.0 |
| 20260906113409 | 18 | 165 | 0.0 | 0.0 | 0.00 | 0.00 | 0.00 | 93 | 1014.1 |
| 20260906112409 | 18 | 165 | 0.0 | 0.0 | 0.00 | 0.00 | 0.00 | 93 | 1013.9 |
| 20260906111409 | 18 | 165 | 0.0 | 0.0 | 0.00 | 0.00 | 0.00 | 93 | 1013.7 |
| 20260906110409 | 18 | 165 | 0.0 | 0.0 | 0.00 | 0.00 | 0.00 | 93 | 1013.6 |
| 20260906105409 | 18 | 165 | 0.0 | 0.0 | 0.00 | 0.00 | 0.00 | 93 | 1013.5 |
| 20260906104409 | 18 | 134 | 0.0 | 0.0 | 0.00 | 0.00 | 0.00 | 93 | 1013.4 |
| 20260906103409 | 18 | 98 | 0.0 | 0.0 | 0.00 | 0.00 | 0.00 | 93 | 1013.3 |
| 20260906102409 | 18 | 132 | 0.0 | 0.0 | 0.00 | 0.00 | 0.00 | 93 | 1013.2 |
| 20260906101409 | 18 | 132 | 0.0 | 0.0 | 0.00 | 0.00 | 0.00 | 93 | 1013.1 |
| 20260906100609 | 18 | 132 | 0.0 | 0.0 | 0.00 | 0.00 | 0.00 | 93 | 1013.1 |
| 20260906094409 | 18 | 132 | 0.0 | 0.0 | 0.00 | 0.00 | 0.00 | 93 | 1012.8 |
| 20260906093409 | 18 | 132 | 0.0 | 0.0 | 0.00 | 0.00 | 0.00 | 93 | 1012.8 |
| 20260906092409 | 18 | 132 | 0.0 | 0.0 | 0.00 | 0.00 | 0.00 | 93 | 1012.6 |
| 20260906091409 | 18 | 132 | 0.0 | 0.0 | 0.00 | 0.00 | 0.00 | 92 | 1012.6 |
| 20260906090409 | 18 | 132 | 0.0 | 0.0 | 0.00 | 0.00 | 0.00 | 92 | 1012.4 |
| 20260906085409 | 18 | 132 | 0.0 | 0.0 | 0.00 | 0.00 | 0.00 | 92 | 1012.3 |
| 20260906084539 | 18 | 132 | 0.0 | 0.0 | 0.00 | 0.00 | 0.00 | 92 | 1012.2 |
| 20260906083409 | 18 | 132 | 0.0 | 0.0 | 0.00 | 0.00 | 0.00 | 92 | 1012.3 |
| 20260906082409 | 18 | 132 | 0.0 | 0.0 | 0.00 | 0.00 | 0.00 | 92 | 1012.2 |
| 20260906080409 | 18 | 132 | 0.0 | 0.0 | 0.00 | 0.00 | 0.00 | 92 | 1012.2 |
| 20260906075409 | 18 | 132 | 0.0 | 0.0 | 0.00 | 0.00 | 0.00 | 92 | 1012.2 |
| 20260906074409 | 18 | 132 | 0.0 | 0.0 | 0.00 | 0.00 | 0.00 | 92 | 1012.1 |
| 20260906073409 | 19 | 132 | 0.0 | 0.0 | 0.00 | 0.00 | 0.00 | 92 | 1012.1 |
| 20260906072409 | 19 | 132 | 0.0 | 0.0 | 0.00 | 0.00 | 0.00 | 92 | 1012.1 |
| 20260906070409 | 19 | 132 | 0.0 | 0.0 | 0.00 | 0.00 | 0.00 | 92 | 1012.0 |
| 20260906065409 | 19 | 132 | 0.0 | 0.0 | 0.00 | 0.00 | 0.00 | 92 | 1012.0 |
| 20260906064409 | 20 | 132 | 0.0 | 0.0 | 0.00 | 0.00 | 0.00 | 92 | 1012.0 |
| 20260906063409 | 20 | 132 | 0.0 | 0.0 | 0.00 | 0.00 | 0.00 | 92 | 1012.1 |
| 20260906062409 | 20 | 132 | 0.0 | 0.0 | 0.00 | 0.00 | 0.00 | 92 | 1012.0 |
| 20260906061409 | 20 | 132 | 0.0 | 0.0 | 0.00 | 0.00 | 0.00 | 92 | 1012.1 |
| 20260906060410 | 20 | 132 | 0.0 | 0.0 | 0.00 | 0.00 | 0.00 | 92 | 1012.1 |
| 20260906055409 | 20 | 132 | 0.0 | 0.0 | 0.00 | 0.00 | 0.00 | 92 | 1012.2 |
| 20260906054409 | 20 | 132 | 0.0 | 0.0 | 0.00 | 0.00 | 0.00 | 92 | 1012.2 |
| 20260906053409 | 20 | 132 | 0.0 | 0.0 | 0.00 | 0.00 | 0.00 | 91 | 1012.2 |
| 20260906052409 | 20 | 132 | 0.0 | 0.0 | 0.00 | 0.00 | 0.00 | 92 | 1012.2 |
| 20260906051409 | 20 | 132 | 0.0 | 0.0 | 0.00 | 0.00 | 0.00 | 92 | 1012.4 |
| 20260906050439 | 20 | 132 | 0.0 | 0.0 | 0.00 | 0.00 | 0.00 | 91 | 1012.4 |
| 20260906045409 | 21 | 132 | 0.0 | 0.0 | 0.00 | 0.00 | 0.00 | 91 | 1012.4 |
| 20260906044409 | 21 | 132 | 0.0 | 0.0 | 0.00 | 0.00 | 0.00 | 91 | 1012.5 |
| 20260906043409 | 21 | 132 | 0.0 | 0.0 | 0.00 | 0.00 | 0.00 | 91 | 1012.5 |
| 20260906042439 | 21 | 132 | 0.0 | 0.0 | 0.00 | 0.00 | 0.00 | 91 | 1012.5 |
| 20260906041409 | 21 | 132 | 0.0 | 0.0 | 0.00 | 0.00 | 0.00 | 91 | 1012.5 |
| 20260906040410 | 21 | 132 | 0.0 | 0.0 | 0.00 | 0.00 | 0.00 | 91 | 1012.4 |
| 20260906035409 | 21 | 132 | 0.0 | 0.0 | 0.00 | 0.00 | 0.00 | 90 | 1012.4 |
| 20260906034409 | 21 | 132 | 0.0 | 0.0 | 0.00 | 0.00 | 0.00 | 90 | 1012.5 |
| 20260906033409 | 21 | 132 | 0.0 | 0.0 | 0.00 | 0.00 | 0.00 | 90 | 1012.5 |
| 20260906032409 | 21 | 132 | 0.0 | 0.0 | 0.00 | 0.00 | 0.00 | 90 | 1012.6 |
| 20260906031409 | 21 | 132 | 0.0 | 0.0 | 0.00 | 0.00 | 0.00 | 89 | 1012.5 |
| 20260906030440 | 21 | 132 | 0.0 | 0.0 | 0.00 | 0.00 | 0.00 | 89 | 1012.4 |
| 20260906025410 | 21 | 132 | 0.0 | 0.0 | 0.00 | 0.00 | 0.00 | 89 | 1012.4 |
| 20260906024409 | 21 | 132 | 0.0 | 0.0 | 0.00 | 0.00 | 0.00 | 88 | 1012.4 |
| 20260906023410 | 21 | 132 | 0.0 | 0.0 | 0.00 | 0.00 | 0.00 | 88 | 1012.5 |
| 20260906022410 | 22 | 132 | 0.0 | 0.0 | 0.00 | 0.00 | 0.00 | 87 | 1012.5 |
| 20260906021409 | 22 | 132 | 0.0 | 0.0 | 0.00 | 0.00 | 0.00 | 87 | 1012.5 |
| 20260906020409 | 22 | 132 | 0.0 | 0.0 | 0.00 | 0.00 | 0.00 | 87 | 1012.5 |
| 20260906015410 | 22 | 132 | 0.0 | 0.0 | 0.00 | 0.00 | 0.00 | 87 | 1012.5 |
| 20260906014410 | 22 | 132 | 0.0 | 0.0 | 0.00 | 0.00 | 0.00 | 86 | 1012.3 |
| 20260906013410 | 22 | 132 | 0.0 | 0.0 | 0.00 | 0.00 | 0.00 | 86 | 1012.2 |
| 20260906012409 | 22 | 132 | 0.0 | 0.0 | 0.00 | 0.00 | 0.00 | 86 | 1012.2 |
| 20260906011410 | 22 | 132 | 0.0 | 0.0 | 0.00 | 0.00 | 0.00 | 87 | 1012.0 |
| 20260906010409 | 22 | 132 | 0.0 | 0.0 | 0.00 | 0.00 | 0.00 | 87 | 1011.8 |
| 20260906005411 | 22 | 132 | 0.0 | 0.0 | 0.00 | 0.00 | 0.00 | 86 | 1011.6 |
| 20260906004410 | 22 | 132 | 0.0 | 0.0 | 0.00 | 0.00 | 0.00 | 86 | 1011.6 |
| 20260906003410 | 23 | 132 | 0.0 | 0.0 | 0.00 | 0.00 | 0.00 | 86 | 1011.5 |
| 20260906002440 | 22 | 132 | 0.0 | 0.0 | 0.00 | 0.00 | 0.00 | 86 | 1011.4 |
| 20260906001410 | 23 | 132 | 0.0 | 0.0 | 0.00 | 0.00 | 0.00 | 86 | 1011.5 |
| 20260906000411 | 23 | 132 | 0.0 | 0.0 | 0.00 | 0.00 | 0.00 | 85 | 1011.3 |
| 20260905235410 | 23 | 132 | 0.0 | 0.0 | 0.00 | 0.00 | 0.00 | 85 | 1011.5 |
| 20260905234440 | 23 | 132 | 0.0 | 0.0 | 0.00 | 0.00 | 0.00 | 85 | 1011.4 |
| 20260905233410 | 23 | 132 | 0.0 | 0.0 | 0.00 | 0.00 | 0.00 | 84 | 1011.4 |
| 20260905232409 | 23 | 128 | 0.0 | 0.0 | 0.00 | 0.00 | 0.00 | 84 | 1011.4 |
| 20260905231410 | 23 | 310 | 0.0 | 0.0 | 0.00 | 0.00 | 0.00 | 84 | 1011.4 |
| 20260905230410 | 24 | 284 | 0.0 | 0.0 | 0.00 | 0.00 | 0.00 | 82 | 1011.4 |
| 20260905225410 | 24 | 284 | 0.0 | 0.0 | 0.00 | 0.00 | 0.00 | 83 | 1011.4 |
| 20260905224410 | 24 | 284 | 0.0 | 0.0 | 0.00 | 0.00 | 0.00 | 82 | 1011.2 |
| 20260905223410 | 25 | 284 | 0.0 | 0.0 | 0.00 | 0.00 | 0.00 | 82 | 1011.1 |
| 20260905222410 | 25 | 284 | 0.0 | 0.0 | 0.00 | 0.03 | 0.00 | 83 | 1010.9 |
| 20260905220410 | 25 | 284 | 0.0 | 0.0 | 0.00 | 0.03 | 0.00 | 79 | 1010.8 |
| 20260905214410 | 25 | 284 | 0.0 | 0.0 | 0.00 | 0.03 | 0.00 | 79 | 1011.0 |
| 20260905213410 | 25 | 284 | 0.0 | 0.0 | 0.00 | 0.03 | 0.00 | 79 | 1011.0 |
| 20260905212410 | 25 | 284 | 0.0 | 0.0 | 0.00 | 0.03 | 0.00 | 79 | 1010.9 |
| 20260905210410 | 26 | 284 | 0.0 | 0.0 | 0.00 | 0.03 | 0.00 | 77 | 1010.7 |
| 20260905205410 | 26 | 285 | 0.0 | 3.2 | 0.00 | 0.03 | 0.00 | 76 | 1010.8 |
| 20260905204410 | 27 | 5 | 0.0 | 1.6 | 0.00 | 0.03 | 0.00 | 74 | 1010.5 |
| 20260905203410 | 27 | 315 | 4.8 | 4.8 | 0.00 | 0.03 | 0.00 | 75 | 1010.5 |
| 20260905202410 | 27 | 311 | 0.0 | 3.2 | 0.00 | 0.03 | 0.00 | 72 | 1010.6 |
| 20260905201410 | 27 | 261 | 0.0 | 0.0 | 0.00 | 0.03 | 0.00 | 73 | 1010.6 |
| 20260905200410 | 26 | 360 | 0.0 | 1.6 | 0.00 | 0.03 | 0.00 | 72 | 1010.7 |
| 20260905194410 | 26 | 19 | 0.0 | 0.0 | 0.00 | 0.03 | 0.00 | 78 | 1010.6 |
| 20260905193410 | 26 | 250 | 0.0 | 3.2 | 0.00 | 0.03 | 0.00 | 78 | 1010.5 |
| 20260905192410 | 26 | 225 | 0.0 | 0.0 | 0.00 | 0.03 | 0.00 | 76 | 1010.4 |
| 20260905191410 | 26 | 225 | 0.0 | 0.0 | 0.00 | 0.03 | 0.00 | 77 | 1010.6 |
| 20260905190410 | 26 | 36 | 0.0 | 0.0 | 0.00 | 0.03 | 0.00 | 77 | 1010.6 |
| 20260905185410 | 25 | 70 | 0.0 | 0.0 | 0.00 | 0.03 | 0.00 | 79 | 1010.3 |
| 20260905184410 | 25 | 70 | 0.0 | 0.0 | 0.00 | 0.03 | 0.00 | 80 | 1010.3 |
| 20260905182440 | 25 | 320 | 0.0 | 0.0 | 0.00 | 0.03 | 0.00 | 82 | 1011.2 |
| 20260905181410 | 25 | 320 | 0.0 | 0.0 | 0.00 | 0.03 | 0.00 | 84 | 1011.4 |
| 20260905180410 | 25 | 318 | 0.0 | 0.0 | 0.00 | 0.03 | 0.00 | 82 | 1012.1 |
| 20260905175410 | 25 | 318 | 0.0 | 0.0 | 0.00 | 0.03 | 0.00 | 82 | 1012.2 |
| 20260905174410 | 26 | 318 | 0.0 | 0.0 | 0.00 | 0.03 | 0.00 | 80 | 1012.4 |
| 20260905173410 | 25 | 318 | 0.0 | 0.0 | 0.00 | 0.03 | 0.00 | 81 | 1012.4 |
| 20260905172410 | 26 | 318 | 0.0 | 0.0 | 0.00 | 0.03 | 0.00 | 81 | 1012.3 |